Dewey R — WDC3093 — position and weather

sailwx.info

Track history (hours):
 
Tides and Currents Weather Stations Pressure Air Temp Water Temp Dewpoint Dewpoint Depression Visibility Wind Speed Wind Dir Waves Ship Positions

Dewey R

Owner: Apex Towing Company a division of Apex Oil Company, St. Louis, MO. More information available from US FCC via Universal Licensing System and Coast Guard Vessel Documentation Center.

Last reported at 2017-Nov-02 19:02 UTC. Time now 2017-Nov-19 01:15 UTC.
Position N 32°30' W 091°07'.
Warning: this ship's position is 16 days out of date.

Length 8 m; draft 3 m.

MMSI: 367002540.

Date/timePositionNaut miles runAvg speedWind from/ knotsBaromVisibWave heightAir tempDewpointWater temp
2017-Nov-02 19:02N 32°30' W 091°07'1 6.3
2017-Nov-02 18:51N 32°29' W 091°07'2 5.4
2017-Nov-02 18:30N 32°28' W 091°06'3 5.5
2017-Nov-02 18:00N 32°26' W 091°03'3 5.3
2017-Nov-02 17:30N 32°25' W 091°00'2 4.5
2017-Nov-02 17:00N 32°23' W 090°60'2 3.9
2017-Nov-02 16:30N 32°21' W 090°59'2 4.6
2017-Nov-02 16:00N 32°21' W 090°57'2 4.3
2017-Nov-02 15:30N 32°20' W 090°54'2 4.1
2017-Nov-02 15:00N 32°18' W 090°55'3 5.6
2017-Nov-02 14:30N 32°17' W 090°57'3 6.3
2017-Nov-02 14:00N 32°14' W 090°59'4 6.6
2017-Nov-02 13:28N 32°10' W 090°60'3 5.8
2017-Nov-02 13:00N 32°08' W 091°01'4 5.3
2017-Nov-02 12:09N 32°08' W 091°06'1 5.5
2017-Nov-02 11:57N 32°07' W 091°07'  
2017-Oct-29 05:48N 32°05' W 091°05'2 7.9
2017-Oct-29 05:30N 32°07' W 091°07'4 7.5
2017-Oct-29 05:00N 32°07' W 091°02'4 7.7
2017-Oct-29 04:30N 32°11' W 090°60'4 8.7
2017-Oct-29 04:00N 32°15' W 090°59'  
Track history (hours):
 
Tides and Currents Weather Stations Pressure Air Temp Water Temp Dewpoint Dewpoint Depression Visibility Wind Speed Wind Dir Waves Ship Positions

Dewey R

Owner: Apex Towing Company a division of Apex Oil Company, St. Louis, MO. More information available from US FCC via Universal Licensing System and Coast Guard Vessel Documentation Center.

Last reported at 2017-Nov-02 19:02 UTC. Time now 2017-Nov-19 01:15 UTC.
Position N 32°30' W 091°07'.
Warning: this ship's position is 16 days out of date.

Length 8 m; draft 3 m.

MMSI: 367002540.

Date/timePositionNaut miles runAvg speedWind from/ knotsBaromVisibWave heightAir tempDewpointWater temp
2017-Nov-02 19:02N 32°30' W 091°07'1 6.3
2017-Nov-02 18:51N 32°29' W 091°07'2 5.4
2017-Nov-02 18:30N 32°28' W 091°06'3 5.5
2017-Nov-02 18:00N 32°26' W 091°03'3 5.3
2017-Nov-02 17:30N 32°25' W 091°00'2 4.5
2017-Nov-02 17:00N 32°23' W 090°60'2 3.9
2017-Nov-02 16:30N 32°21' W 090°59'2 4.6
2017-Nov-02 16:00N 32°21' W 090°57'2 4.3
2017-Nov-02 15:30N 32°20' W 090°54'2 4.1
2017-Nov-02 15:00N 32°18' W 090°55'3 5.6
2017-Nov-02 14:30N 32°17' W 090°57'3 6.3
2017-Nov-02 14:00N 32°14' W 090°59'4 6.6
2017-Nov-02 13:28N 32°10' W 090°60'3 5.8
2017-Nov-02 13:00N 32°08' W 091°01'4 5.3
2017-Nov-02 12:09N 32°08' W 091°06'1 5.5
2017-Nov-02 11:57N 32°07' W 091°07'  
2017-Oct-29 05:48N 32°05' W 091°05'2 7.9
2017-Oct-29 05:30N 32°07' W 091°07'4 7.5
2017-Oct-29 05:00N 32°07' W 091°02'4 7.7
2017-Oct-29 04:30N 32°11' W 090°60'4 8.7
2017-Oct-29 04:00N 32°15' W 090°59'  

Dump ship's entire track history